sensor_id;sensor_type;location;lat;lon;timestamp;temperature;humidity
10384;DHT22;5238;43.508;4.980;2023-05-25T00:02:11;20.90;91.30
10384;DHT22;5238;43.508;4.980;2023-05-25T00:04:42;20.90;91.30
10384;DHT22;5238;43.508;4.980;2023-05-25T00:07:14;20.90;91.30
10384;DHT22;5238;43.508;4.980;2023-05-25T00:09:42;20.90;91.30
10384;DHT22;5238;43.508;4.980;2023-05-25T00:12:12;20.90;91.30
10384;DHT22;5238;43.508;4.980;2023-05-25T00:14:43;20.90;91.30
10384;DHT22;5238;43.508;4.980;2023-05-25T00:17:12;20.90;91.30
10384;DHT22;5238;43.508;4.980;2023-05-25T00:19:46;20.80;91.30
10384;DHT22;5238;43.508;4.980;2023-05-25T00:22:17;20.80;91.30
10384;DHT22;5238;43.508;4.980;2023-05-25T00:24:45;20.70;91.30
10384;DHT22;5238;43.508;4.980;2023-05-25T00:40:44;20.50;91.30
10384;DHT22;5238;43.508;4.980;2023-05-25T00:43:12;20.50;91.30
10384;DHT22;5238;43.508;4.980;2023-05-25T00:45:40;20.50;91.30
10384;DHT22;5238;43.508;4.980;2023-05-25T00:48:09;20.50;91.30
10384;DHT22;5238;43.508;4.980;2023-05-25T00:50:38;20.50;91.30
10384;DHT22;5238;43.508;4.980;2023-05-25T00:53:13;20.50;91.30
10384;DHT22;5238;43.508;4.980;2023-05-25T00:55:49;20.40;91.30
10384;DHT22;5238;43.508;4.980;2023-05-25T00:58:23;20.40;91.30
10384;DHT22;5238;43.508;4.980;2023-05-25T01:00:56;20.40;91.30
10384;DHT22;5238;43.508;4.980;2023-05-25T01:03:33;20.40;91.30
10384;DHT22;5238;43.508;4.980;2023-05-25T01:06:10;20.30;91.30
10384;DHT22;5238;43.508;4.980;2023-05-25T01:08:41;20.30;91.30
10384;DHT22;5238;43.508;4.980;2023-05-25T01:11:12;20.20;91.30
10384;DHT22;5238;43.508;4.980;2023-05-25T01:13:41;20.20;91.30
10384;DHT22;5238;43.508;4.980;2023-05-25T01:16:21;20.20;91.30
10384;DHT22;5238;43.508;4.980;2023-05-25T01:18:48;20.20;91.30
10384;DHT22;5238;43.508;4.980;2023-05-25T01:21:21;20.20;91.30
10384;DHT22;5238;43.508;4.980;2023-05-25T01:23:57;20.10;91.30
10384;DHT22;5238;43.508;4.980;2023-05-25T01:26:29;20.10;91.30
10384;DHT22;5238;43.508;4.980;2023-05-25T01:28:59;20.10;91.30
10384;DHT22;5238;43.508;4.980;2023-05-25T01:31:34;20.10;91.30
10384;DHT22;5238;43.508;4.980;2023-05-25T01:34:07;20.10;91.30
10384;DHT22;5238;43.508;4.980;2023-05-25T01:36:51;20.10;91.30
10384;DHT22;5238;43.508;4.980;2023-05-25T01:39:21;20.00;91.30
10384;DHT22;5238;43.508;4.980;2023-05-25T01:41:51;20.00;91.30
10384;DHT22;5238;43.508;4.980;2023-05-25T01:44:25;20.00;91.30
10384;DHT22;5238;43.508;4.980;2023-05-25T01:47:09;20.00;91.30
10384;DHT22;5238;43.508;4.980;2023-05-25T01:49:45;19.90;91.30
10384;DHT22;5238;43.508;4.980;2023-05-25T01:52:22;19.90;91.30
10384;DHT22;5238;43.508;4.980;2023-05-25T01:55:00;19.90;91.30
10384;DHT22;5238;43.508;4.980;2023-05-25T01:57:28;19.90;91.30
10384;DHT22;5238;43.508;4.980;2023-05-25T01:59:56;19.90;91.30
10384;DHT22;5238;43.508;4.980;2023-05-25T02:02:28;19.80;91.30
10384;DHT22;5238;43.508;4.980;2023-05-25T02:04:57;19.80;91.30
10384;DHT22;5238;43.508;4.980;2023-05-25T02:07:26;19.80;91.30
10384;DHT22;5238;43.508;4.980;2023-05-25T02:09:54;19.80;91.30
10384;DHT22;5238;43.508;4.980;2023-05-25T02:12:22;19.80;91.30
10384;DHT22;5238;43.508;4.980;2023-05-25T02:14:52;19.80;91.30
10384;DHT22;5238;43.508;4.980;2023-05-25T02:17:28;19.80;91.30
10384;DHT22;5238;43.508;4.980;2023-05-25T02:19:58;19.80;91.30
10384;DHT22;5238;43.508;4.980;2023-05-25T02:22:39;19.80;91.30
10384;DHT22;5238;43.508;4.980;2023-05-25T02:25:07;19.80;91.30
10384;DHT22;5238;43.508;4.980;2023-05-25T02:27:42;19.80;91.30
10384;DHT22;5238;43.508;4.980;2023-05-25T02:30:11;19.80;91.30
10384;DHT22;5238;43.508;4.980;2023-05-25T02:32:45;19.80;91.30
10384;DHT22;5238;43.508;4.980;2023-05-25T02:35:15;19.80;91.30
10384;DHT22;5238;43.508;4.980;2023-05-25T02:37:45;19.80;91.30
10384;DHT22;5238;43.508;4.980;2023-05-25T02:40:14;19.80;91.30
10384;DHT22;5238;43.508;4.980;2023-05-25T02:42:47;19.90;91.30
10384;DHT22;5238;43.508;4.980;2023-05-25T02:45:16;19.90;91.30
10384;DHT22;5238;43.508;4.980;2023-05-25T02:47:45;19.80;91.30
10384;DHT22;5238;43.508;4.980;2023-05-25T02:50:18;19.80;91.30
10384;DHT22;5238;43.508;4.980;2023-05-25T02:52:48;19.80;91.30
10384;DHT22;5238;43.508;4.980;2023-05-25T02:55:18;19.80;91.30
10384;DHT22;5238;43.508;4.980;2023-05-25T02:57:46;19.80;91.30
10384;DHT22;5238;43.508;4.980;2023-05-25T03:00:21;19.80;91.30
10384;DHT22;5238;43.508;4.980;2023-05-25T03:02:57;19.80;91.30
10384;DHT22;5238;43.508;4.980;2023-05-25T03:05:25;19.80;91.30
10384;DHT22;5238;43.508;4.980;2023-05-25T03:07:54;19.80;91.30
10384;DHT22;5238;43.508;4.980;2023-05-25T03:10:25;19.80;91.30
10384;DHT22;5238;43.508;4.980;2023-05-25T03:12:53;19.80;91.30
10384;DHT22;5238;43.508;4.980;2023-05-25T03:15:34;19.80;91.30
10384;DHT22;5238;43.508;4.980;2023-05-25T03:18:09;19.80;91.30
10384;DHT22;5238;43.508;4.980;2023-05-25T03:20:38;19.70;91.30
10384;DHT22;5238;43.508;4.980;2023-05-25T03:23:12;19.70;91.30
10384;DHT22;5238;43.508;4.980;2023-05-25T03:25:43;19.70;91.30
10384;DHT22;5238;43.508;4.980;2023-05-25T03:28:24;19.60;91.30
10384;DHT22;5238;43.508;4.980;2023-05-25T03:30:55;19.60;91.30
10384;DHT22;5238;43.508;4.980;2023-05-25T03:33:26;19.50;91.30
10384;DHT22;5238;43.508;4.980;2023-05-25T03:35:54;19.50;91.30
10384;DHT22;5238;43.508;4.980;2023-05-25T03:38:37;19.40;91.30
10384;DHT22;5238;43.508;4.980;2023-05-25T03:41:04;19.30;91.30
10384;DHT22;5238;43.508;4.980;2023-05-25T03:43:32;19.30;91.30
10384;DHT22;5238;43.508;4.980;2023-05-25T03:46:00;19.20;91.30
10384;DHT22;5238;43.508;4.980;2023-05-25T03:48:29;19.20;91.30
10384;DHT22;5238;43.508;4.980;2023-05-25T03:51:00;19.10;91.30
10384;DHT22;5238;43.508;4.980;2023-05-25T03:53:29;19.10;91.30
10384;DHT22;5238;43.508;4.980;2023-05-25T03:56:13;19.10;91.30
10384;DHT22;5238;43.508;4.980;2023-05-25T03:58:42;19.10;91.30
10384;DHT22;5238;43.508;4.980;2023-05-25T04:01:13;19.10;91.30
10384;DHT22;5238;43.508;4.980;2023-05-25T04:03:47;19.00;91.30
10384;DHT22;5238;43.508;4.980;2023-05-25T04:06:30;19.00;91.30
10384;DHT22;5238;43.508;4.980;2023-05-25T04:09:04;19.00;91.30
10384;DHT22;5238;43.508;4.980;2023-05-25T04:11:44;19.00;91.30
10384;DHT22;5238;43.508;4.980;2023-05-25T04:14:12;19.00;91.30
10384;DHT22;5238;43.508;4.980;2023-05-25T04:16:52;19.00;91.30
10384;DHT22;5238;43.508;4.980;2023-05-25T04:19:31;19.00;91.30
10384;DHT22;5238;43.508;4.980;2023-05-25T04:22:00;19.00;91.30
10384;DHT22;5238;43.508;4.980;2023-05-25T04:24:28;19.00;91.30
10384;DHT22;5238;43.508;4.980;2023-05-25T04:27:04;19.10;91.30
10384;DHT22;5238;43.508;4.980;2023-05-25T04:29:45;19.00;91.30
10384;DHT22;5238;43.508;4.980;2023-05-25T04:32:18;19.00;91.30
10384;DHT22;5238;43.508;4.980;2023-05-25T04:34:48;19.00;91.30
10384;DHT22;5238;43.508;4.980;2023-05-25T04:37:19;19.00;91.30
10384;DHT22;5238;43.508;4.980;2023-05-25T04:39:56;19.00;91.30
10384;DHT22;5238;43.508;4.980;2023-05-25T04:42:28;18.90;91.30
10384;DHT22;5238;43.508;4.980;2023-05-25T04:45:06;18.90;91.30
10384;DHT22;5238;43.508;4.980;2023-05-25T04:47:37;18.90;91.30
10384;DHT22;5238;43.508;4.980;2023-05-25T04:50:12;18.90;91.30
10384;DHT22;5238;43.508;4.980;2023-05-25T04:52:40;18.90;91.30
10384;DHT22;5238;43.508;4.980;2023-05-25T04:55:15;18.90;91.30
10384;DHT22;5238;43.508;4.980;2023-05-25T04:57:57;19.00;91.30
10384;DHT22;5238;43.508;4.980;2023-05-25T05:00:26;19.00;91.30
10384;DHT22;5238;43.508;4.980;2023-05-25T05:02:54;19.00;91.30
10384;DHT22;5238;43.508;4.980;2023-05-25T05:05:23;19.00;91.30
10384;DHT22;5238;43.508;4.980;2023-05-25T05:07:56;19.00;91.30
10384;DHT22;5238;43.508;4.980;2023-05-25T05:10:38;19.00;91.30
10384;DHT22;5238;43.508;4.980;2023-05-25T05:13:31;19.00;91.30
10384;DHT22;5238;43.508;4.980;2023-05-25T05:15:59;19.00;91.30
10384;DHT22;5238;43.508;4.980;2023-05-25T05:18:27;19.00;91.30
10384;DHT22;5238;43.508;4.980;2023-05-25T05:20:59;19.10;91.30
10384;DHT22;5238;43.508;4.980;2023-05-25T05:23:27;19.10;91.30
10384;DHT22;5238;43.508;4.980;2023-05-25T05:25:54;19.10;91.30
10384;DHT22;5238;43.508;4.980;2023-05-25T05:28:22;19.10;91.30
10384;DHT22;5238;43.508;4.980;2023-05-25T05:30:59;19.10;91.30
10384;DHT22;5238;43.508;4.980;2023-05-25T05:33:43;19.10;91.30
10384;DHT22;5238;43.508;4.980;2023-05-25T05:36:10;19.20;91.30
10384;DHT22;5238;43.508;4.980;2023-05-25T05:38:38;19.10;91.30
10384;DHT22;5238;43.508;4.980;2023-05-25T05:41:13;19.20;91.30
10384;DHT22;5238;43.508;4.980;2023-05-25T05:43:48;19.10;91.30
10384;DHT22;5238;43.508;4.980;2023-05-25T05:46:18;19.10;91.30
10384;DHT22;5238;43.508;4.980;2023-05-25T05:48:47;19.00;91.30
10384;DHT22;5238;43.508;4.980;2023-05-25T05:51:22;19.00;91.30
10384;DHT22;5238;43.508;4.980;2023-05-25T05:53:56;19.00;91.30
10384;DHT22;5238;43.508;4.980;2023-05-25T05:56:24;19.00;91.30
10384;DHT22;5238;43.508;4.980;2023-05-25T05:58:52;19.00;91.30
10384;DHT22;5238;43.508;4.980;2023-05-25T06:01:23;19.00;91.30
10384;DHT22;5238;43.508;4.980;2023-05-25T06:04:04;19.10;91.30
10384;DHT22;5238;43.508;4.980;2023-05-25T06:06:52;19.10;91.30
10384;DHT22;5238;43.508;4.980;2023-05-25T06:09:19;19.10;91.30
10384;DHT22;5238;43.508;4.980;2023-05-25T06:12:05;19.10;91.30
10384;DHT22;5238;43.508;4.980;2023-05-25T06:14:34;19.10;91.30
10384;DHT22;5238;43.508;4.980;2023-05-25T06:17:05;19.20;91.30
10384;DHT22;5238;43.508;4.980;2023-05-25T06:19:32;19.20;91.30
10384;DHT22;5238;43.508;4.980;2023-05-25T06:22:00;19.20;91.30
10384;DHT22;5238;43.508;4.980;2023-05-25T06:24:29;19.20;91.30
10384;DHT22;5238;43.508;4.980;2023-05-25T06:26:59;19.20;91.30
10384;DHT22;5238;43.508;4.980;2023-05-25T06:29:28;19.20;91.30
10384;DHT22;5238;43.508;4.980;2023-05-25T06:32:00;19.20;91.30
10384;DHT22;5238;43.508;4.980;2023-05-25T06:34:33;19.20;91.30
10384;DHT22;5238;43.508;4.980;2023-05-25T06:37:18;19.30;91.30
10384;DHT22;5238;43.508;4.980;2023-05-25T06:40:07;19.30;91.30
10384;DHT22;5238;43.508;4.980;2023-05-25T06:42:34;19.30;91.30
10384;DHT22;5238;43.508;4.980;2023-05-25T06:45:20;19.40;91.30
10384;DHT22;5238;43.508;4.980;2023-05-25T06:47:48;19.50;91.30
10384;DHT22;5238;43.508;4.980;2023-05-25T06:50:19;19.50;91.30
10384;DHT22;5238;43.508;4.980;2023-05-25T06:52:46;19.60;91.30
10384;DHT22;5238;43.508;4.980;2023-05-25T06:55:15;19.70;91.30
10384;DHT22;5238;43.508;4.980;2023-05-25T06:57:48;19.80;91.30
10384;DHT22;5238;43.508;4.980;2023-05-25T07:00:17;20.00;91.30
10384;DHT22;5238;43.508;4.980;2023-05-25T07:02:52;20.10;91.30
10384;DHT22;5238;43.508;4.980;2023-05-25T07:05:38;20.20;91.30
10384;DHT22;5238;43.508;4.980;2023-05-25T07:08:13;20.30;91.30
10384;DHT22;5238;43.508;4.980;2023-05-25T07:10:45;20.40;91.30
10384;DHT22;5238;43.508;4.980;2023-05-25T07:13:14;20.50;91.30
10384;DHT22;5238;43.508;4.980;2023-05-25T07:15:42;20.60;91.30
10384;DHT22;5238;43.508;4.980;2023-05-25T07:18:13;20.70;91.30
10384;DHT22;5238;43.508;4.980;2023-05-25T07:21:05;20.80;91.30
10384;DHT22;5238;43.508;4.980;2023-05-25T07:23:46;20.90;91.30
10384;DHT22;5238;43.508;4.980;2023-05-25T07:26:14;21.10;91.30
10384;DHT22;5238;43.508;4.980;2023-05-25T07:28:50;21.30;91.30
10384;DHT22;5238;43.508;4.980;2023-05-25T07:31:20;21.40;91.30
10384;DHT22;5238;43.508;4.980;2023-05-25T07:34:01;21.70;91.30
10384;DHT22;5238;43.508;4.980;2023-05-25T07:36:37;22.00;91.30
10384;DHT22;5238;43.508;4.980;2023-05-25T07:39:12;22.20;91.30
10384;DHT22;5238;43.508;4.980;2023-05-25T07:41:56;22.30;91.30
10384;DHT22;5238;43.508;4.980;2023-05-25T07:44:37;22.30;91.30
10384;DHT22;5238;43.508;4.980;2023-05-25T07:47:04;22.40;91.30
10384;DHT22;5238;43.508;4.980;2023-05-25T07:49:46;22.50;91.30
10384;DHT22;5238;43.508;4.980;2023-05-25T07:52:20;22.50;91.30
10384;DHT22;5238;43.508;4.980;2023-05-25T07:54:48;22.50;91.30
10384;DHT22;5238;43.508;4.980;2023-05-25T07:57:19;22.60;91.30
10384;DHT22;5238;43.508;4.980;2023-05-25T07:59:49;22.50;91.30
10384;DHT22;5238;43.508;4.980;2023-05-25T08:02:19;22.40;91.30
10384;DHT22;5238;43.508;4.980;2023-05-25T08:04:46;22.40;91.30
10384;DHT22;5238;43.508;4.980;2023-05-25T08:07:28;22.40;91.30
10384;DHT22;5238;43.508;4.980;2023-05-25T08:09:56;22.30;91.30
10384;DHT22;5238;43.508;4.980;2023-05-25T08:12:25;22.20;91.30
10384;DHT22;5238;43.508;4.980;2023-05-25T08:14:56;22.10;91.30
10384;DHT22;5238;43.508;4.980;2023-05-25T08:17:30;22.00;91.30
10384;DHT22;5238;43.508;4.980;2023-05-25T08:20:06;21.80;91.30
10384;DHT22;5238;43.508;4.980;2023-05-25T08:22:51;21.70;91.30
10384;DHT22;5238;43.508;4.980;2023-05-25T08:25:24;21.60;91.30
10384;DHT22;5238;43.508;4.980;2023-05-25T08:28:04;21.40;91.30
10384;DHT22;5238;43.508;4.980;2023-05-25T08:30:39;21.30;91.30
10384;DHT22;5238;43.508;4.980;2023-05-25T08:33:09;21.20;91.30
10384;DHT22;5238;43.508;4.980;2023-05-25T08:35:45;21.10;91.30
10384;DHT22;5238;43.508;4.980;2023-05-25T08:38:27;21.10;91.30
10384;DHT22;5238;43.508;4.980;2023-05-25T08:41:02;21.10;91.30
10384;DHT22;5238;43.508;4.980;2023-05-25T08:43:33;21.10;91.30
10384;DHT22;5238;43.508;4.980;2023-05-25T08:46:03;21.10;91.30
10384;DHT22;5238;43.508;4.980;2023-05-25T08:48:46;21.00;91.30
10384;DHT22;5238;43.508;4.980;2023-05-25T08:51:15;21.10;91.30
10384;DHT22;5238;43.508;4.980;2023-05-25T08:53:56;21.10;91.30
10384;DHT22;5238;43.508;4.980;2023-05-25T08:56:36;21.10;91.30
10384;DHT22;5238;43.508;4.980;2023-05-25T08:59:29;21.00;91.30
10384;DHT22;5238;43.508;4.980;2023-05-25T09:02:27;21.00;91.30
10384;DHT22;5238;43.508;4.980;2023-05-25T09:05:08;21.00;91.30
10384;DHT22;5238;43.508;4.980;2023-05-25T09:07:41;21.00;91.30
10384;DHT22;5238;43.508;4.980;2023-05-25T09:10:16;21.10;91.30
10384;DHT22;5238;43.508;4.980;2023-05-25T09:12:50;21.10;91.30
10384;DHT22;5238;43.508;4.980;2023-05-25T09:15:19;21.10;91.30
10384;DHT22;5238;43.508;4.980;2023-05-25T09:17:54;21.20;91.30
10384;DHT22;5238;43.508;4.980;2023-05-25T09:20:26;21.20;91.30
10384;DHT22;5238;43.508;4.980;2023-05-25T09:23:02;21.30;91.30
10384;DHT22;5238;43.508;4.980;2023-05-25T09:25:32;21.30;91.30
10384;DHT22;5238;43.508;4.980;2023-05-25T09:28:08;21.40;91.30
10384;DHT22;5238;43.508;4.980;2023-05-25T09:30:43;21.40;91.30
10384;DHT22;5238;43.508;4.980;2023-05-25T09:33:13;21.40;91.30
10384;DHT22;5238;43.508;4.980;2023-05-25T09:35:43;21.50;91.30
10384;DHT22;5238;43.508;4.980;2023-05-25T09:38:18;21.50;91.30
10384;DHT22;5238;43.508;4.980;2023-05-25T09:40:56;21.50;91.30
10384;DHT22;5238;43.508;4.980;2023-05-25T09:43:37;21.50;91.30
10384;DHT22;5238;43.508;4.980;2023-05-25T09:46:06;21.50;91.30
10384;DHT22;5238;43.508;4.980;2023-05-25T09:48:34;21.50;91.30
10384;DHT22;5238;43.508;4.980;2023-05-25T09:51:05;21.50;91.30
10384;DHT22;5238;43.508;4.980;2023-05-25T09:53:32;21.50;91.30
10384;DHT22;5238;43.508;4.980;2023-05-25T09:56:09;21.50;91.30
10384;DHT22;5238;43.508;4.980;2023-05-25T09:58:38;21.60;91.30
10384;DHT22;5238;43.508;4.980;2023-05-25T10:01:09;21.60;91.30
10384;DHT22;5238;43.508;4.980;2023-05-25T10:03:46;21.70;91.30
10384;DHT22;5238;43.508;4.980;2023-05-25T10:06:14;21.80;91.30
10384;DHT22;5238;43.508;4.980;2023-05-25T10:08:44;21.80;91.30
10384;DHT22;5238;43.508;4.980;2023-05-25T10:11:20;21.90;91.30
10384;DHT22;5238;43.508;4.980;2023-05-25T10:13:53;21.90;91.30
10384;DHT22;5238;43.508;4.980;2023-05-25T10:16:30;22.00;91.30
10384;DHT22;5238;43.508;4.980;2023-05-25T10:19:05;21.90;91.30
10384;DHT22;5238;43.508;4.980;2023-05-25T10:21:42;21.80;91.30
10384;DHT22;5238;43.508;4.980;2023-05-25T10:24:19;21.70;91.30
10384;DHT22;5238;43.508;4.980;2023-05-25T10:26:58;21.50;91.30
10384;DHT22;5238;43.508;4.980;2023-05-25T10:29:27;21.50;91.30
10384;DHT22;5238;43.508;4.980;2023-05-25T10:32:10;21.50;91.30
10384;DHT22;5238;43.508;4.980;2023-05-25T10:34:40;21.50;91.30
10384;DHT22;5238;43.508;4.980;2023-05-25T10:37:13;21.50;91.30
10384;DHT22;5238;43.508;4.980;2023-05-25T10:39:42;21.40;91.30
10384;DHT22;5238;43.508;4.980;2023-05-25T10:42:20;21.30;91.30
10384;DHT22;5238;43.508;4.980;2023-05-25T10:44:48;21.30;91.30
10384;DHT22;5238;43.508;4.980;2023-05-25T10:47:18;21.30;91.30
10384;DHT22;5238;43.508;4.980;2023-05-25T10:49:54;21.30;91.30
10384;DHT22;5238;43.508;4.980;2023-05-25T10:52:26;21.30;91.30
10384;DHT22;5238;43.508;4.980;2023-05-25T10:54:56;21.30;91.30
10384;DHT22;5238;43.508;4.980;2023-05-25T10:57:39;21.30;91.30
10384;DHT22;5238;43.508;4.980;2023-05-25T11:00:20;21.20;91.30
10384;DHT22;5238;43.508;4.980;2023-05-25T11:03:01;21.20;91.30
10384;DHT22;5238;43.508;4.980;2023-05-25T11:05:39;21.20;91.30
10384;DHT22;5238;43.508;4.980;2023-05-25T11:08:09;21.20;91.30
10384;DHT22;5238;43.508;4.980;2023-05-25T11:10:53;21.20;91.30
10384;DHT22;5238;43.508;4.980;2023-05-25T11:13:42;21.30;91.30
10384;DHT22;5238;43.508;4.980;2023-05-25T11:16:19;21.30;91.30
10384;DHT22;5238;43.508;4.980;2023-05-25T11:18:51;21.40;91.30
10384;DHT22;5238;43.508;4.980;2023-05-25T11:21:40;21.50;91.30
10384;DHT22;5238;43.508;4.980;2023-05-25T11:24:12;21.50;91.30
10384;DHT22;5238;43.508;4.980;2023-05-25T11:26:56;21.50;91.30
10384;DHT22;5238;43.508;4.980;2023-05-25T11:29:30;21.60;91.30
10384;DHT22;5238;43.508;4.980;2023-05-25T11:32:11;21.70;91.30
10384;DHT22;5238;43.508;4.980;2023-05-25T11:35:02;21.80;91.30
10384;DHT22;5238;43.508;4.980;2023-05-25T11:37:34;21.90;91.30
10384;DHT22;5238;43.508;4.980;2023-05-25T11:40:20;22.10;91.30
10384;DHT22;5238;43.508;4.980;2023-05-25T11:43:02;22.20;91.30
10384;DHT22;5238;43.508;4.980;2023-05-25T11:45:59;22.40;91.30
10384;DHT22;5238;43.508;4.980;2023-05-25T11:48:27;22.60;91.30
10384;DHT22;5238;43.508;4.980;2023-05-25T11:51:07;22.80;91.30
10384;DHT22;5238;43.508;4.980;2023-05-25T11:53:48;22.90;91.30
10384;DHT22;5238;43.508;4.980;2023-05-25T11:56:17;23.10;91.30
10384;DHT22;5238;43.508;4.980;2023-05-25T11:58:49;23.20;91.30
10384;DHT22;5238;43.508;4.980;2023-05-25T12:01:26;23.40;91.30
10384;DHT22;5238;43.508;4.980;2023-05-25T12:04:10;23.60;91.30
10384;DHT22;5238;43.508;4.980;2023-05-25T12:06:39;23.70;91.30
10384;DHT22;5238;43.508;4.980;2023-05-25T12:09:10;23.70;91.30
10384;DHT22;5238;43.508;4.980;2023-05-25T12:11:37;23.70;91.30
10384;DHT22;5238;43.508;4.980;2023-05-25T12:14:09;23.90;91.30
10384;DHT22;5238;43.508;4.980;2023-05-25T12:16:40;24.00;91.30
10384;DHT22;5238;43.508;4.980;2023-05-25T12:19:09;24.20;91.30
10384;DHT22;5238;43.508;4.980;2023-05-25T12:21:39;24.20;91.30
10384;DHT22;5238;43.508;4.980;2023-05-25T12:24:07;24.40;91.30
10384;DHT22;5238;43.508;4.980;2023-05-25T12:26:49;24.50;91.30
10384;DHT22;5238;43.508;4.980;2023-05-25T12:29:35;24.70;91.30
10384;DHT22;5238;43.508;4.980;2023-05-25T12:32:28;24.90;91.30
10384;DHT22;5238;43.508;4.980;2023-05-25T12:35:08;25.00;91.30
10384;DHT22;5238;43.508;4.980;2023-05-25T12:37:37;25.20;91.30
10384;DHT22;5238;43.508;4.980;2023-05-25T12:40:16;25.30;91.30
10384;DHT22;5238;43.508;4.980;2023-05-25T12:42:58;25.40;91.30
10384;DHT22;5238;43.508;4.980;2023-05-25T12:45:29;25.40;91.30
10384;DHT22;5238;43.508;4.980;2023-05-25T12:48:15;25.50;91.30
10384;DHT22;5238;43.508;4.980;2023-05-25T12:51:00;25.60;91.30
10384;DHT22;5238;43.508;4.980;2023-05-25T12:53:44;25.70;91.30
10384;DHT22;5238;43.508;4.980;2023-05-25T12:56:11;25.60;91.30
10384;DHT22;5238;43.508;4.980;2023-05-25T12:58:38;25.40;91.30
10384;DHT22;5238;43.508;4.980;2023-05-25T13:01:06;25.30;91.30
10384;DHT22;5238;43.508;4.980;2023-05-25T13:03:35;25.20;91.30
10384;DHT22;5238;43.508;4.980;2023-05-25T13:06:03;25.20;91.30
10384;DHT22;5238;43.508;4.980;2023-05-25T13:08:31;25.20;91.30
10384;DHT22;5238;43.508;4.980;2023-05-25T13:10:59;25.20;91.30
10384;DHT22;5238;43.508;4.980;2023-05-25T13:13:28;25.20;91.30
10384;DHT22;5238;43.508;4.980;2023-05-25T13:15:55;25.20;91.30
10384;DHT22;5238;43.508;4.980;2023-05-25T13:18:22;25.20;91.30
10384;DHT22;5238;43.508;4.980;2023-05-25T13:20:51;25.10;91.30
10384;DHT22;5238;43.508;4.980;2023-05-25T13:23:22;25.00;91.30
10384;DHT22;5238;43.508;4.980;2023-05-25T13:25:49;25.00;91.30
10384;DHT22;5238;43.508;4.980;2023-05-25T13:28:17;25.00;91.30
10384;DHT22;5238;43.508;4.980;2023-05-25T13:30:44;25.00;91.30
10384;DHT22;5238;43.508;4.980;2023-05-25T13:33:11;25.00;91.30
10384;DHT22;5238;43.508;4.980;2023-05-25T13:35:38;25.10;91.30
10384;DHT22;5238;43.508;4.980;2023-05-25T13:38:23;25.10;91.30
10384;DHT22;5238;43.508;4.980;2023-05-25T13:40:51;25.00;91.30
10384;DHT22;5238;43.508;4.980;2023-05-25T13:43:18;25.00;91.30
10384;DHT22;5238;43.508;4.980;2023-05-25T13:45:45;25.10;91.30
10384;DHT22;5238;43.508;4.980;2023-05-25T13:48:12;25.10;91.30
10384;DHT22;5238;43.508;4.980;2023-05-25T13:50:39;25.20;91.30
10384;DHT22;5238;43.508;4.980;2023-05-25T13:53:06;25.20;91.30
10384;DHT22;5238;43.508;4.980;2023-05-25T13:55:35;25.30;91.30
10384;DHT22;5238;43.508;4.980;2023-05-25T13:58:02;25.30;91.30
10384;DHT22;5238;43.508;4.980;2023-05-25T14:00:29;25.40;91.30
10384;DHT22;5238;43.508;4.980;2023-05-25T14:02:56;25.40;91.30
10384;DHT22;5238;43.508;4.980;2023-05-25T14:05:23;25.50;91.30
10384;DHT22;5238;43.508;4.980;2023-05-25T14:07:50;25.50;91.30
10384;DHT22;5238;43.508;4.980;2023-05-25T14:10:18;25.50;91.30
10384;DHT22;5238;43.508;4.980;2023-05-25T14:12:46;25.60;91.30
10384;DHT22;5238;43.508;4.980;2023-05-25T14:15:14;25.70;91.30
10384;DHT22;5238;43.508;4.980;2023-05-25T14:17:41;25.70;91.30
10384;DHT22;5238;43.508;4.980;2023-05-25T14:20:08;25.70;91.30
10384;DHT22;5238;43.508;4.980;2023-05-25T14:22:40;25.80;91.30
10384;DHT22;5238;43.508;4.980;2023-05-25T14:25:07;25.90;91.30
10384;DHT22;5238;43.508;4.980;2023-05-25T14:27:34;25.90;91.30
10384;DHT22;5238;43.508;4.980;2023-05-25T14:30:03;25.90;91.30
10384;DHT22;5238;43.508;4.980;2023-05-25T14:32:31;25.90;91.30
10384;DHT22;5238;43.508;4.980;2023-05-25T14:34:58;25.90;91.30
10384;DHT22;5238;43.508;4.980;2023-05-25T14:37:26;25.90;91.30
10384;DHT22;5238;43.508;4.980;2023-05-25T14:39:55;26.00;91.30
10384;DHT22;5238;43.508;4.980;2023-05-25T14:42:30;26.00;91.30
10384;DHT22;5238;43.508;4.980;2023-05-25T14:45:17;26.00;91.30
10384;DHT22;5238;43.508;4.980;2023-05-25T14:47:52;26.10;91.30
10384;DHT22;5238;43.508;4.980;2023-05-25T14:50:20;26.20;91.30
10384;DHT22;5238;43.508;4.980;2023-05-25T14:52:48;26.20;91.30
10384;DHT22;5238;43.508;4.980;2023-05-25T14:55:23;26.20;91.30
10384;DHT22;5238;43.508;4.980;2023-05-25T14:57:54;26.30;91.30
10384;DHT22;5238;43.508;4.980;2023-05-25T15:00:38;26.30;91.30
10384;DHT22;5238;43.508;4.980;2023-05-25T15:03:07;26.40;91.30
10384;DHT22;5238;43.508;4.980;2023-05-25T15:05:35;26.40;91.30
10384;DHT22;5238;43.508;4.980;2023-05-25T15:08:16;26.40;91.30
10384;DHT22;5238;43.508;4.980;2023-05-25T15:10:43;26.50;91.30
10384;DHT22;5238;43.508;4.980;2023-05-25T15:13:10;26.60;91.30
10384;DHT22;5238;43.508;4.980;2023-05-25T15:15:38;26.60;91.30
10384;DHT22;5238;43.508;4.980;2023-05-25T15:18:06;26.70;91.30
10384;DHT22;5238;43.508;4.980;2023-05-25T15:20:33;26.80;91.30
10384;DHT22;5238;43.508;4.980;2023-05-25T15:23:00;26.80;91.30
10384;DHT22;5238;43.508;4.980;2023-05-25T15:25:27;26.80;91.30
10384;DHT22;5238;43.508;4.980;2023-05-25T15:27:54;26.80;91.30
10384;DHT22;5238;43.508;4.980;2023-05-25T15:30:35;26.80;91.30
10384;DHT22;5238;43.508;4.980;2023-05-25T15:33:13;26.80;91.30
10384;DHT22;5238;43.508;4.980;2023-05-25T15:35:40;26.80;91.30
10384;DHT22;5238;43.508;4.980;2023-05-25T15:38:07;26.80;91.30
10384;DHT22;5238;43.508;4.980;2023-05-25T15:40:34;26.80;91.30
10384;DHT22;5238;43.508;4.980;2023-05-25T15:43:04;26.80;91.30
10384;DHT22;5238;43.508;4.980;2023-05-25T15:45:33;26.80;91.30
10384;DHT22;5238;43.508;4.980;2023-05-25T15:48:05;26.80;91.30
10384;DHT22;5238;43.508;4.980;2023-05-25T15:50:42;26.80;91.30
10384;DHT22;5238;43.508;4.980;2023-05-25T15:53:11;26.80;91.30
10384;DHT22;5238;43.508;4.980;2023-05-25T15:55:46;26.70;91.30
10384;DHT22;5238;43.508;4.980;2023-05-25T15:58:27;26.70;91.30
10384;DHT22;5238;43.508;4.980;2023-05-25T16:00:56;26.60;91.30
10384;DHT22;5238;43.508;4.980;2023-05-25T16:03:23;26.50;91.30
10384;DHT22;5238;43.508;4.980;2023-05-25T16:05:51;26.50;91.30
10384;DHT22;5238;43.508;4.980;2023-05-25T16:08:18;26.40;91.30
10384;DHT22;5238;43.508;4.980;2023-05-25T16:10:45;26.30;91.30
10384;DHT22;5238;43.508;4.980;2023-05-25T16:13:12;26.30;91.30
10384;DHT22;5238;43.508;4.980;2023-05-25T16:15:40;26.30;91.30
10384;DHT22;5238;43.508;4.980;2023-05-25T16:18:07;26.20;91.30
10384;DHT22;5238;43.508;4.980;2023-05-25T16:20:34;26.10;91.30
10384;DHT22;5238;43.508;4.980;2023-05-25T16:23:04;26.00;91.30
10384;DHT22;5238;43.508;4.980;2023-05-25T16:25:34;25.80;91.30
10384;DHT22;5238;43.508;4.980;2023-05-25T16:28:04;25.70;91.30
10384;DHT22;5238;43.508;4.980;2023-05-25T16:30:35;25.60;91.30
10384;DHT22;5238;43.508;4.980;2023-05-25T16:33:07;25.50;91.30
10384;DHT22;5238;43.508;4.980;2023-05-25T16:35:41;25.40;91.30